Terminal Aerodrome Forecast
Issued by NWS Sioux Falls, SD

Home | Current Version | Previous Version | Text Only | Print | Product List | Glossary Off
Versions: 1 2 3 4 5 6 7 8 9 10 11 12 13 14

000
FTUS43 KFSD 301724
TAFHON
TAF
KHON 301724Z 3018/0118 17014G23KT P6SM SCT200
     FM010100 15011KT P6SM SCT200
     FM010400 18007KT P6SM BKN100
     FM010600 24007KT P6SM SCT060 BKN090
      TEMPO 0107/0109 P6SM -SHRA BKN060
     FM010900 28007KT P6SM SCT100
     FM011300 35011KT P6SM SKC=

USA.gov is the U.S. government's official web portal to all federal, state and local government web resources and services.